Карточка аэропорта UWKE

Внимание!
Информация на этой странице в стадии наполнения.
Если вы не увидели какой-то информации, или заметили неточность - пожалуйста сообщите нам!
Спасибо!
Команда RU-STAFF
Название аэропортаБегишево
Название аэропорта (англ.)Begishevo
Превышение643 ft. (196 m.)
Координаты55°33.882', 52°5.5500000000001'
Высота перехода700m
Эшелон переходаQFE>=742mm:FL040; QFE<742=>715:FL050; QFE<715:FL060
Коды ответчика1000
Зона ОрВДСамара РПИ (UWWW)
Данные METARUWKE 041130Z 17002MPS CAVOK M06/M14 Q1022 R21/710070 NOSIG RMK QFE749/0999
Проноз погоды (TAF)UWKE 041055Z 0412/0512 15003G10MPS 9999 SCT020 TEMPO 0412/0415 2100 -SN BR OVC005 TEMPO 0415/0421 6000 -SN BKN016
NOTAMshow/hide NOTAM
AWOS   TABLE

Информация о ВПП

ВПП Длина ВПП (м.) Покрытие Курс ВПП Частота ILS
212502Асфальтобетон214109.9
032502Асфальтобетон34 

Диспетчерские позиции

Позывной Наименование органа УВД Частота
UWKE_R_APPБегишево-Круг127.900
UWKE_TWRБегишево-Вышка121.200



Спутниковое изображение